createdAt,value
2023-08-08T00:01:00.408Z,14.70
2023-08-08T00:03:27.948Z,14.70
2023-08-08T00:05:55.299Z,14.70
2023-08-08T00:08:22.394Z,14.70
2023-08-08T00:10:49.410Z,14.70
2023-08-08T00:13:16.539Z,14.70
2023-08-08T00:15:43.721Z,14.70
2023-08-08T00:18:10.860Z,14.70
2023-08-08T00:20:39.068Z,14.60
2023-08-08T00:23:06.273Z,14.70
2023-08-08T00:25:33.393Z,14.60
2023-08-08T00:28:00.437Z,14.60
2023-08-08T00:30:28.973Z,14.60
2023-08-08T00:32:56.814Z,14.60
2023-08-08T00:35:24.275Z,14.60
2023-08-08T00:37:51.399Z,14.60
2023-08-08T00:40:19.554Z,14.50
2023-08-08T00:42:46.647Z,14.50
2023-08-08T00:45:13.733Z,14.50
2023-08-08T00:47:40.929Z,14.50
2023-08-08T00:50:09.749Z,14.50
2023-08-08T00:52:38.622Z,14.50
2023-08-08T00:55:06.608Z,14.50
2023-08-08T00:57:33.738Z,14.50
2023-08-08T01:00:00.812Z,14.40
2023-08-08T01:02:28.073Z,14.30
2023-08-08T01:04:55.200Z,14.40
2023-08-08T01:07:57.236Z,14.30
2023-08-08T01:10:35.316Z,14.30
2023-08-08T01:13:08.478Z,14.40
2023-08-08T01:15:38.524Z,14.40
2023-08-08T01:18:10.115Z,14.40
2023-08-08T01:20:38.638Z,14.30
2023-08-08T01:23:26.311Z,14.30
2023-08-08T01:25:56.816Z,14.20
2023-08-08T01:28:24.706Z,14.20
2023-08-08T01:30:52.586Z,14.20
2023-08-08T01:33:19.914Z,14.20
2023-08-08T01:35:54.392Z,14.20
2023-08-08T01:38:35.311Z,14.20
2023-08-08T01:41:06.041Z,14.20
2023-08-08T01:43:34.489Z,14.10
2023-08-08T01:46:04.029Z,14.20
2023-08-08T01:48:31.648Z,14.10
2023-08-08T01:50:58.933Z,14.10
2023-08-08T01:53:26.083Z,14.10
2023-08-08T01:55:54.237Z,14.00
2023-08-08T01:58:21.262Z,14.00
2023-08-08T02:00:48.782Z,14.00
2023-08-08T02:03:16.109Z,13.90
2023-08-08T02:05:43.992Z,13.90
2023-08-08T02:08:11.345Z,13.90
2023-08-08T02:10:38.360Z,13.80
2023-08-08T02:13:05.943Z,13.80
2023-08-08T02:15:33.058Z,13.80
2023-08-08T02:18:01.435Z,13.80
2023-08-08T02:20:28.915Z,13.80
2023-08-08T02:22:55.892Z,13.80
2023-08-08T02:25:23.006Z,13.70
2023-08-08T02:27:50.264Z,13.70
2023-08-08T02:30:17.541Z,13.60
2023-08-08T02:32:44.881Z,13.60
2023-08-08T02:35:12.031Z,13.60
2023-08-08T02:37:39.031Z,13.60
2023-08-08T02:40:07.825Z,13.60
2023-08-08T02:42:35.083Z,13.60
2023-08-08T02:45:02.351Z,13.50
2023-08-08T02:47:29.460Z,13.50
2023-08-08T02:49:56.640Z,13.50
2023-08-08T02:52:23.872Z,13.50
2023-08-08T02:54:51.136Z,13.40
2023-08-08T02:57:18.386Z,13.40
2023-08-08T02:59:45.471Z,13.40
2023-08-08T03:02:12.656Z,13.30
2023-08-08T03:04:40.733Z,13.30
2023-08-08T03:07:09.136Z,13.30
2023-08-08T03:09:37.967Z,13.20
2023-08-08T03:12:05.691Z,13.20
2023-08-08T03:14:34.883Z,13.20
2023-08-08T03:17:03.805Z,13.10
2023-08-08T03:19:32.194Z,13.20
2023-08-08T03:22:01.385Z,13.10
2023-08-08T03:24:28.737Z,13.10
2023-08-08T03:26:55.840Z,13.10
2023-08-08T03:29:23.038Z,13.10
2023-08-08T03:31:50.318Z,13.10
2023-08-08T03:34:18.405Z,13.00
2023-08-08T03:36:46.351Z,13.10
2023-08-08T03:39:13.978Z,13.00
2023-08-08T03:41:41.076Z,13.10
2023-08-08T03:44:08.242Z,13.10
2023-08-08T03:46:36.175Z,13.10
2023-08-08T03:49:03.566Z,13.20
2023-08-08T03:51:30.816Z,13.20
2023-08-08T03:53:58.581Z,13.20
2023-08-08T03:56:25.673Z,13.30
2023-08-08T03:58:54.728Z,13.30
2023-08-08T04:01:22.651Z,13.40
2023-08-08T04:03:49.840Z,13.40
2023-08-08T04:06:17.005Z,13.50
2023-08-08T04:08:44.404Z,13.60
2023-08-08T04:11:11.461Z,13.70
2023-08-08T04:13:38.469Z,13.80
2023-08-08T04:16:06.312Z,14.00
2023-08-08T04:18:33.426Z,14.20
2023-08-08T04:21:00.409Z,14.60
2023-08-08T04:23:27.665Z,15.30
2023-08-08T04:25:55.271Z,15.70
2023-08-08T04:28:22.349Z,16.10
2023-08-08T04:30:49.402Z,15.50
2023-08-08T04:33:16.602Z,15.00
2023-08-08T04:35:43.667Z,14.90
2023-08-08T04:38:10.951Z,14.70
2023-08-08T04:40:39.145Z,14.70
2023-08-08T04:43:06.674Z,14.80
2023-08-08T04:45:34.632Z,15.00
2023-08-08T04:48:01.799Z,15.90
2023-08-08T04:50:29.588Z,17.30
2023-08-08T04:52:56.801Z,17.60
2023-08-08T04:55:24.133Z,17.30
2023-08-08T04:57:51.195Z,18.00
2023-08-08T05:00:18.843Z,18.80
2023-08-08T05:02:45.994Z,18.40
2023-08-08T05:05:13.125Z,17.50
2023-08-08T05:07:40.312Z,16.70
2023-08-08T05:10:07.852Z,16.10
2023-08-08T05:12:34.975Z,15.70
2023-08-08T05:15:02.379Z,15.50
2023-08-08T05:17:33.429Z,15.50
2023-08-08T05:20:00.493Z,15.40
2023-08-08T05:22:27.656Z,15.40
2023-08-08T05:24:54.695Z,15.40
2023-08-08T05:27:21.739Z,15.20
2023-08-08T05:29:48.779Z,15.20
2023-08-08T05:32:15.830Z,15.30
2023-08-08T05:34:42.973Z,15.20
2023-08-08T05:37:16.572Z,15.30
2023-08-08T05:39:45.891Z,15.30
2023-08-08T05:42:13.465Z,15.30
2023-08-08T05:44:43.065Z,15.40
2023-08-08T05:47:10.365Z,15.30
2023-08-08T05:49:37.607Z,15.20
2023-08-08T05:52:05.223Z,15.20
2023-08-08T05:54:32.261Z,15.20
2023-08-08T05:56:59.607Z,15.30
2023-08-08T05:59:26.627Z,15.40
2023-08-08T06:01:53.800Z,15.40
2023-08-08T06:04:20.961Z,15.40
2023-08-08T06:06:50.260Z,15.50
2023-08-08T06:09:18.216Z,15.50
2023-08-08T06:11:45.532Z,15.50
2023-08-08T06:14:12.629Z,15.60
2023-08-08T06:16:39.862Z,15.70
2023-08-08T06:19:07.320Z,15.80
2023-08-08T06:21:34.452Z,15.90
2023-08-08T06:24:01.451Z,16.30
2023-08-08T06:26:28.787Z,16.70
2023-08-08T06:28:55.960Z,17.10
2023-08-08T06:31:23.532Z,17.80
2023-08-08T06:33:50.723Z,18.40
2023-08-08T06:36:17.844Z,17.80
2023-08-08T06:38:45.076Z,18.00
2023-08-08T06:41:12.186Z,18.30
2023-08-08T06:43:39.420Z,18.10
2023-08-08T06:46:06.567Z,18.00
2023-08-08T06:48:33.658Z,17.60
2023-08-08T06:51:01.338Z,17.50
2023-08-08T06:53:28.409Z,17.60
2023-08-08T06:55:55.520Z,18.40
2023-08-08T06:58:22.586Z,19.00
2023-08-08T07:00:49.699Z,19.60
2023-08-08T07:03:16.949Z,20.10
2023-08-08T07:05:44.762Z,20.80
2023-08-08T07:08:11.813Z,21.50
2023-08-08T07:10:38.920Z,21.60
2023-08-08T07:13:05.973Z,21.80
2023-08-08T07:15:33.145Z,21.90
2023-08-08T07:18:01.411Z,21.90
2023-08-08T07:20:28.570Z,21.50
2023-08-08T07:22:55.921Z,21.20
2023-08-08T07:25:22.955Z,21.10
2023-08-08T07:27:49.966Z,21.70
2023-08-08T07:30:17.388Z,22.50
2023-08-08T07:32:44.716Z,22.70
2023-08-08T09:56:16.574Z,22.80
2023-08-08T09:58:44.544Z,19.50
2023-08-08T10:01:14.140Z,19.40
2023-08-08T10:03:44.762Z,19.40
2023-08-08T10:06:12.141Z,19.10
2023-08-08T10:08:39.403Z,18.90
2023-08-08T10:11:10.223Z,19.00
2023-08-08T10:13:38.041Z,19.30
2023-08-08T10:16:10.197Z,19.60
2023-08-08T10:18:37.676Z,19.90
2023-08-08T10:21:10.042Z,20.40
2023-08-08T10:23:38.620Z,20.30
2023-08-08T10:26:06.564Z,20.30
2023-08-08T10:28:35.361Z,20.10
2023-08-08T10:31:03.427Z,19.60
2023-08-08T10:36:10.198Z,19.30
2023-08-08T10:38:44.227Z,19.20
2023-08-08T10:41:17.069Z,19.50
2023-08-08T10:43:57.991Z,19.90
2023-08-08T10:46:30.226Z,20.10
2023-08-08T10:49:06.639Z,20.10
2023-08-08T11:04:27.515Z,20.90
2023-08-08T11:06:55.688Z,21.40
2023-08-08T11:09:23.622Z,21.10
2023-08-08T11:11:50.945Z,21.30
2023-08-08T11:14:20.829Z,21.20
2023-08-08T11:16:49.861Z,21.30
2023-08-08T11:19:17.692Z,20.90
2023-08-08T11:21:46.482Z,20.60
2023-08-08T11:24:14.538Z,20.50
2023-08-08T11:26:43.175Z,20.50
2023-08-08T11:31:39.073Z,20.80
2023-08-08T11:34:06.588Z,21.50
2023-08-08T11:36:36.073Z,22.10
2023-08-08T11:39:09.555Z,21.80
2023-08-08T11:41:37.968Z,21.40
2023-08-08T11:44:06.240Z,21.40
2023-08-08T11:54:05.425Z,20.90
2023-08-08T11:56:37.630Z,19.50
2023-08-08T11:59:06.817Z,19.10
2023-08-08T12:01:35.544Z,18.80
2023-08-08T12:04:09.698Z,18.40
2023-08-08T12:06:43.763Z,18.00
2023-08-08T12:09:14.518Z,17.80
2023-08-08T12:11:41.801Z,17.70
2023-08-08T12:14:10.831Z,17.60
2023-08-08T12:16:40.394Z,17.70
2023-08-08T12:19:12.501Z,17.90
2023-08-08T12:21:39.880Z,17.80
2023-08-08T12:24:07.514Z,17.40
2023-08-08T12:26:34.533Z,17.30
2023-08-08T12:29:01.703Z,17.20
2023-08-08T12:31:30.309Z,17.00
2023-08-08T12:33:57.646Z,17.00
2023-08-08T12:36:24.785Z,17.10
2023-08-08T12:38:52.288Z,17.10
2023-08-08T12:41:19.478Z,17.20
2023-08-08T12:43:46.888Z,17.40
2023-08-08T12:46:14.057Z,17.60
2023-08-08T12:48:41.261Z,18.10
2023-08-08T12:51:09.882Z,18.40
2023-08-08T12:53:37.032Z,18.70
2023-08-08T12:56:04.340Z,18.90
2023-08-08T12:58:31.640Z,19.00
2023-08-08T13:00:59.044Z,19.30
2023-08-08T13:03:26.281Z,18.90
2023-08-08T13:05:53.715Z,18.80
2023-08-08T13:08:20.928Z,18.90
2023-08-08T13:10:48.168Z,19.00
2023-08-08T13:13:15.353Z,19.00
2023-08-08T13:15:42.392Z,19.00
2023-08-08T13:18:09.603Z,19.10
2023-08-08T13:20:37.118Z,19.40
2023-08-08T13:23:05.410Z,19.50
2023-08-08T13:25:35.469Z,19.30
2023-08-08T13:28:04.341Z,19.30
2023-08-08T13:30:32.268Z,19.50
2023-08-08T13:33:00.795Z,19.50
2023-08-08T13:37:58.801Z,19.80
2023-08-08T13:40:26.599Z,19.70
2023-08-08T13:42:54.797Z,19.60
2023-08-08T13:45:24.029Z,19.50
2023-08-08T13:47:51.679Z,19.50
2023-08-08T13:50:19.685Z,19.60
2023-08-08T13:52:46.916Z,19.50
2023-08-08T13:55:14.489Z,19.30
2023-08-08T13:57:41.680Z,19.20
2023-08-08T14:00:12.216Z,19.20
2023-08-08T14:02:39.944Z,19.20
2023-08-08T14:05:11.563Z,19.20
2023-08-08T14:07:38.780Z,19.30
2023-08-08T14:10:06.854Z,19.40
2023-08-08T14:12:33.944Z,19.40
2023-08-08T14:15:01.227Z,19.40
2023-08-08T14:17:28.841Z,19.40
2023-08-08T14:19:56.308Z,19.40
2023-08-08T14:22:23.493Z,19.30
2023-08-08T14:24:50.717Z,19.20
2023-08-08T14:27:17.846Z,19.20
2023-08-08T14:29:45.191Z,19.30
2023-08-08T14:32:12.442Z,19.30
2023-08-08T14:34:40.689Z,19.40
2023-08-08T14:37:08.381Z,19.50
2023-08-08T14:39:36.017Z,19.60
2023-08-08T14:42:04.135Z,19.70
2023-08-08T14:44:33.675Z,19.60
2023-08-08T14:47:01.320Z,19.50
2023-08-08T14:49:28.910Z,19.70
2023-08-08T14:51:56.145Z,19.60
2023-08-08T14:54:23.410Z,19.80
2023-08-08T14:56:50.678Z,19.60
2023-08-08T14:59:17.933Z,19.30
2023-08-08T15:01:45.341Z,19.40
2023-08-08T15:04:13.101Z,19.40
2023-08-08T15:06:42.666Z,19.30
2023-08-08T15:09:09.909Z,19.50
2023-08-08T15:11:37.102Z,19.50
2023-08-08T15:14:04.252Z,19.50
2023-08-08T15:16:31.460Z,19.50
2023-08-08T15:18:59.725Z,19.60
2023-08-08T15:21:26.882Z,19.60
2023-08-08T15:23:54.141Z,19.60
2023-08-08T15:26:23.371Z,19.60
2023-08-08T15:28:51.168Z,19.50
2023-08-08T16:08:19.651Z,19.50
2023-08-08T16:10:47.063Z,19.00
2023-08-08T16:13:14.170Z,19.00
2023-08-08T16:15:42.527Z,19.00
2023-08-08T16:18:09.864Z,18.90
2023-08-08T16:47:42.042Z,18.90
2023-08-08T16:50:09.640Z,18.70
2023-08-08T16:52:36.738Z,18.70
2023-08-08T16:55:04.245Z,18.60
2023-08-08T16:57:31.598Z,18.50
2023-08-08T16:59:58.924Z,18.60
2023-08-08T17:02:26.146Z,18.50
2023-08-08T17:04:53.166Z,18.40
2023-08-08T17:07:20.428Z,18.40
2023-08-08T17:09:47.509Z,18.30
2023-08-08T17:12:14.900Z,18.30
2023-08-08T17:14:42.067Z,18.20
2023-08-08T17:17:09.376Z,18.20
2023-08-08T17:19:36.654Z,18.10
2023-08-08T17:22:04.161Z,18.10
2023-08-08T17:24:35.323Z,18.00
2023-08-08T17:27:06.525Z,18.00
2023-08-08T17:29:33.940Z,18.00
2023-08-08T17:32:01.425Z,18.00
2023-08-08T17:34:28.998Z,18.00
2023-08-08T17:36:56.204Z,18.00
2023-08-08T17:39:23.564Z,17.90
2023-08-08T17:41:50.927Z,17.90
2023-08-08T17:44:18.053Z,17.90
2023-08-08T17:46:45.418Z,17.80
2023-08-08T17:49:12.605Z,17.60
2023-08-08T17:51:39.713Z,17.50
2023-08-08T17:54:07.324Z,17.50
2023-08-08T17:56:34.637Z,17.40
2023-08-08T17:59:01.829Z,17.30
2023-08-08T18:01:29.048Z,17.20
2023-08-08T18:03:56.266Z,17.10
2023-08-08T18:06:23.478Z,17.00
2023-08-08T18:08:50.669Z,17.00
2023-08-08T18:11:18.569Z,16.90
2023-08-08T18:13:45.829Z,16.90
2023-08-08T18:16:13.073Z,16.80
2023-08-08T18:18:40.313Z,16.70
2023-08-08T18:21:07.946Z,16.60
2023-08-08T18:23:35.317Z,16.60
2023-08-08T18:26:04.044Z,16.50
2023-08-08T18:28:32.260Z,16.40
2023-08-08T18:30:59.394Z,16.40
2023-08-08T18:33:26.713Z,16.30
2023-08-08T18:35:54.120Z,16.20
2023-08-08T18:38:21.349Z,16.10
2023-08-08T18:40:48.428Z,16.00
2023-08-08T18:43:15.587Z,16.00
2023-08-08T18:45:42.720Z,15.90
2023-08-08T18:48:09.904Z,15.90
2023-08-08T18:50:37.066Z,15.90
2023-08-08T18:53:04.612Z,15.90
2023-08-08T18:55:31.874Z,15.90
2023-08-08T18:58:00.267Z,15.90
2023-08-08T19:00:28.098Z,15.80
2023-08-08T19:02:55.395Z,15.70
2023-08-08T19:05:22.861Z,15.70
2023-08-08T19:07:50.581Z,15.60
2023-08-08T19:10:18.199Z,15.60
2023-08-08T19:12:45.497Z,15.60
2023-08-08T19:15:12.698Z,15.60
2023-08-08T19:17:54.888Z,15.60
2023-08-08T19:20:23.961Z,15.60
2023-08-08T19:22:51.119Z,15.50
2023-08-08T19:25:18.300Z,15.50
2023-08-08T19:27:45.591Z,15.50
2023-08-08T19:30:13.197Z,15.40
2023-08-08T19:32:40.537Z,15.40
2023-08-08T19:35:07.969Z,15.30
2023-08-08T19:37:35.163Z,15.30
2023-08-08T19:40:02.814Z,15.30
2023-08-08T19:42:29.961Z,15.30
2023-08-08T19:44:57.503Z,15.30
2023-08-08T19:47:24.765Z,15.30
2023-08-08T19:49:51.980Z,15.30
2023-08-08T19:52:19.213Z,15.30
2023-08-08T19:54:46.401Z,15.30
2023-08-08T19:57:13.656Z,15.20
2023-08-08T19:59:40.868Z,15.20
2023-08-08T20:02:08.377Z,15.20
2023-08-08T20:04:35.457Z,15.20
2023-08-08T20:07:03.946Z,15.10
2023-08-08T20:09:31.507Z,15.10
2023-08-08T20:11:59.050Z,15.00
2023-08-08T20:14:26.777Z,15.10
2023-08-08T20:16:53.941Z,15.10
2023-08-08T20:19:21.049Z,15.10
2023-08-08T20:21:48.700Z,15.10
2023-08-08T20:24:15.811Z,15.10
2023-08-08T20:26:42.906Z,15.20
2023-08-08T20:29:10.123Z,15.10
2023-08-08T20:31:37.357Z,15.10
2023-08-08T20:34:04.737Z,15.00
2023-08-08T20:36:31.903Z,15.00
2023-08-08T20:38:59.308Z,15.00
2023-08-08T20:41:26.971Z,15.00
2023-08-08T20:43:54.431Z,14.90
2023-08-08T20:46:21.892Z,14.90
2023-08-08T20:48:52.114Z,14.80
2023-08-08T20:51:19.204Z,14.80
2023-08-08T20:53:46.430Z,14.70
2023-08-08T20:56:13.791Z,14.60
2023-08-08T20:58:40.832Z,14.50
2023-08-08T21:01:08.161Z,14.40
2023-08-08T21:03:35.360Z,14.30
2023-08-08T21:06:02.587Z,14.30
2023-08-08T21:08:35.558Z,14.30
2023-08-08T21:11:03.967Z,14.30
2023-08-08T21:13:31.384Z,14.40
2023-08-08T21:15:58.721Z,14.40
2023-08-08T21:18:26.111Z,14.40
2023-08-08T21:20:53.273Z,14.40
2023-08-08T21:23:20.442Z,14.30
2023-08-08T21:25:47.658Z,14.30
2023-08-08T21:28:14.964Z,14.40
2023-08-08T21:30:42.199Z,14.40
2023-08-08T21:33:09.469Z,14.40
2023-08-08T21:35:36.525Z,14.40
2023-08-08T21:38:04.546Z,14.40
2023-08-08T21:40:31.748Z,14.40
2023-08-08T21:42:59.086Z,14.50
2023-08-08T21:45:26.510Z,14.50
2023-08-08T21:47:53.716Z,14.50
2023-08-08T21:50:20.913Z,14.60
2023-08-08T21:52:48.036Z,14.70
2023-08-08T21:55:15.246Z,14.80
2023-08-08T21:57:42.563Z,14.80
2023-08-08T22:00:14.521Z,14.80
2023-08-08T22:02:43.256Z,14.90
2023-08-08T22:05:10.962Z,14.90
2023-08-08T22:07:38.478Z,14.90
2023-08-08T22:10:06.346Z,15.00
2023-08-08T22:12:33.650Z,15.00
2023-08-08T22:15:00.818Z,15.10
2023-08-08T22:17:28.121Z,15.10
2023-08-08T22:19:55.246Z,15.10
2023-08-08T22:22:22.496Z,15.00
2023-08-08T22:24:49.766Z,15.00
2023-08-08T22:27:17.019Z,15.00
2023-08-08T22:29:44.027Z,14.90
2023-08-08T22:32:11.211Z,14.80
2023-08-08T22:34:38.369Z,14.60
2023-08-08T22:37:05.508Z,14.50
2023-08-08T22:39:32.787Z,14.40
2023-08-08T22:42:00.070Z,14.30
2023-08-08T22:44:27.398Z,14.20
2023-08-08T22:46:54.552Z,14.10
2023-08-08T22:49:21.771Z,14.10
2023-08-08T22:51:50.176Z,14.10
2023-08-08T22:54:17.696Z,14.00
2023-08-08T22:56:44.875Z,13.90
2023-08-08T22:59:12.124Z,13.80
2023-08-08T23:01:39.453Z,13.90
2023-08-08T23:04:07.137Z,13.90
2023-08-08T23:06:34.448Z,13.90
2023-08-08T23:09:01.603Z,14.00
2023-08-08T23:11:29.473Z,13.90
2023-08-08T23:13:56.677Z,13.80
2023-08-08T23:16:23.799Z,13.80
2023-08-08T23:18:53.745Z,13.80
2023-08-08T23:21:21.031Z,13.80
2023-08-08T23:23:48.347Z,13.70
2023-08-08T23:26:15.988Z,13.70
2023-08-08T23:28:44.600Z,13.70
2023-08-08T23:31:12.159Z,13.60
2023-08-08T23:33:39.380Z,13.60
2023-08-08T23:36:08.076Z,13.60
2023-08-08T23:38:35.539Z,13.50
2023-08-08T23:41:04.534Z,13.60
2023-08-08T23:43:32.547Z,13.60
2023-08-08T23:45:59.884Z,13.60
2023-08-08T23:48:27.623Z,13.60
2023-08-08T23:50:55.267Z,13.60
2023-08-08T23:53:25.045Z,13.60
2023-08-08T23:55:52.608Z,13.60
2023-08-08T23:58:19.953Z,13.60
